sensor_id;sensor_type;location;lat;lon;timestamp;P1;durP1;ratioP1;P2;durP2;ratioP2
12232;SDS011;6179;51.748;8.728;2022-09-27T00:04:22;0.93;;;0.50;;
12232;SDS011;6179;51.748;8.728;2022-09-27T00:10:23;6.93;;;0.60;;
12232;SDS011;6179;51.748;8.728;2022-09-27T00:16:31;2.57;;;0.63;;
12232;SDS011;6179;51.748;8.728;2022-09-27T00:22:33;0.70;;;0.70;;
12232;SDS011;6179;51.748;8.728;2022-09-27T00:28:34;4.60;;;0.70;;
12232;SDS011;6179;51.748;8.728;2022-09-27T00:34:35;1.47;;;1.00;;
12232;SDS011;6179;51.748;8.728;2022-09-27T00:40:36;1.00;;;1.00;;
12232;SDS011;6179;51.748;8.728;2022-09-27T00:46:41;11.13;;;0.87;;
12232;SDS011;6179;51.748;8.728;2022-09-27T00:52:54;1.80;;;0.70;;
12232;SDS011;6179;51.748;8.728;2022-09-27T01:05:19;2.50;;;0.80;;
12232;SDS011;6179;51.748;8.728;2022-09-27T01:11:38;2.00;;;0.60;;
12232;SDS011;6179;51.748;8.728;2022-09-27T01:42:27;5.40;;;2.57;;
12232;SDS011;6179;51.748;8.728;2022-09-27T01:48:42;8.20;;;1.43;;
12232;SDS011;6179;51.748;8.728;2022-09-27T01:54:55;2.83;;;1.30;;
12232;SDS011;6179;51.748;8.728;2022-09-27T02:00:59;3.10;;;1.53;;
12232;SDS011;6179;51.748;8.728;2022-09-27T02:07:03;2.27;;;1.20;;
12232;SDS011;6179;51.748;8.728;2022-09-27T02:13:17;4.40;;;1.50;;
12232;SDS011;6179;51.748;8.728;2022-09-27T02:31:49;2.50;;;1.10;;
12232;SDS011;6179;51.748;8.728;2022-09-27T02:37:50;1.57;;;0.83;;
12232;SDS011;6179;51.748;8.728;2022-09-27T02:43:53;1.00;;;0.77;;
12232;SDS011;6179;51.748;8.728;2022-09-27T02:56:25;0.67;;;0.67;;
12232;SDS011;6179;51.748;8.728;2022-09-27T03:02:36;0.70;;;0.70;;
12232;SDS011;6179;51.748;8.728;2022-09-27T03:09:21;3.20;;;1.43;;
12232;SDS011;6179;51.748;8.728;2022-09-27T03:15:23;2.70;;;1.13;;
12232;SDS011;6179;51.748;8.728;2022-09-27T03:21:24;2.03;;;1.03;;
12232;SDS011;6179;51.748;8.728;2022-09-27T03:27:25;1.23;;;0.70;;
12232;SDS011;6179;51.748;8.728;2022-09-27T03:33:25;4.90;;;0.87;;
12232;SDS011;6179;51.748;8.728;2022-09-27T03:39:26;2.50;;;0.70;;
12232;SDS011;6179;51.748;8.728;2022-09-27T03:45:27;1.30;;;0.50;;
12232;SDS011;6179;51.748;8.728;2022-09-27T03:51:27;1.80;;;0.57;;
12232;SDS011;6179;51.748;8.728;2022-09-27T03:57:28;2.10;;;0.83;;
12232;SDS011;6179;51.748;8.728;2022-09-27T04:03:29;0.60;;;0.60;;
12232;SDS011;6179;51.748;8.728;2022-09-27T04:09:30;11.53;;;0.60;;
12232;SDS011;6179;51.748;8.728;2022-09-27T04:15:31;7.00;;;0.70;;
12232;SDS011;6179;51.748;8.728;2022-09-27T04:21:32;1.63;;;0.50;;
12232;SDS011;6179;51.748;8.728;2022-09-27T04:27:33;3.80;;;1.07;;
12232;SDS011;6179;51.748;8.728;2022-09-27T04:33:34;4.60;;;0.60;;
12232;SDS011;6179;51.748;8.728;2022-09-27T04:39:35;0.87;;;0.57;;
12232;SDS011;6179;51.748;8.728;2022-09-27T04:45:35;3.90;;;0.53;;
12232;SDS011;6179;51.748;8.728;2022-09-27T04:51:36;1.63;;;0.50;;
12232;SDS011;6179;51.748;8.728;2022-09-27T04:57:37;1.83;;;0.60;;
12232;SDS011;6179;51.748;8.728;2022-09-27T05:03:37;1.30;;;1.10;;
12232;SDS011;6179;51.748;8.728;2022-09-27T05:09:38;0.63;;;0.60;;
12232;SDS011;6179;51.748;8.728;2022-09-27T05:15:39;0.90;;;0.70;;
12232;SDS011;6179;51.748;8.728;2022-09-27T05:21:40;6.77;;;0.97;;
12232;SDS011;6179;51.748;8.728;2022-09-27T05:27:42;0.83;;;0.60;;
12232;SDS011;6179;51.748;8.728;2022-09-27T05:33:43;4.73;;;0.83;;
12232;SDS011;6179;51.748;8.728;2022-09-27T05:39:44;6.80;;;0.50;;
12232;SDS011;6179;51.748;8.728;2022-09-27T05:45:45;1.90;;;0.73;;
12232;SDS011;6179;51.748;8.728;2022-09-27T05:51:46;6.20;;;0.93;;
12232;SDS011;6179;51.748;8.728;2022-09-27T05:57:56;2.40;;;1.10;;
12232;SDS011;6179;51.748;8.728;2022-09-27T06:03:59;9.00;;;1.30;;
12232;SDS011;6179;51.748;8.728;2022-09-27T06:10:00;2.40;;;1.40;;
12232;SDS011;6179;51.748;8.728;2022-09-27T06:16:01;15.10;;;2.17;;
12232;SDS011;6179;51.748;8.728;2022-09-27T06:22:03;6.00;;;3.03;;
12232;SDS011;6179;51.748;8.728;2022-09-27T06:28:03;3.27;;;0.80;;
12232;SDS011;6179;51.748;8.728;2022-09-27T06:34:04;2.07;;;0.90;;
12232;SDS011;6179;51.748;8.728;2022-09-27T06:40:06;0.93;;;0.93;;
12232;SDS011;6179;51.748;8.728;2022-09-27T06:46:08;2.20;;;0.97;;
12232;SDS011;6179;51.748;8.728;2022-09-27T06:52:08;2.30;;;0.60;;
12232;SDS011;6179;51.748;8.728;2022-09-27T06:58:10;3.17;;;0.60;;
12232;SDS011;6179;51.748;8.728;2022-09-27T07:04:29;2.30;;;0.60;;
12232;SDS011;6179;51.748;8.728;2022-09-27T07:10:32;12.00;;;1.03;;
12232;SDS011;6179;51.748;8.728;2022-09-27T07:16:34;2.73;;;0.67;;
12232;SDS011;6179;51.748;8.728;2022-09-27T07:22:41;2.13;;;1.00;;
12232;SDS011;6179;51.748;8.728;2022-09-27T07:28:44;1.57;;;0.70;;
12232;SDS011;6179;51.748;8.728;2022-09-27T07:34:47;1.07;;;1.07;;
12232;SDS011;6179;51.748;8.728;2022-09-27T07:40:49;1.30;;;1.20;;
12232;SDS011;6179;51.748;8.728;2022-09-27T07:46:50;1.57;;;0.90;;
12232;SDS011;6179;51.748;8.728;2022-09-27T07:52:55;3.00;;;1.93;;
12232;SDS011;6179;51.748;8.728;2022-09-27T07:58:59;3.33;;;1.67;;
12232;SDS011;6179;51.748;8.728;2022-09-27T08:05:00;5.60;;;3.10;;
12232;SDS011;6179;51.748;8.728;2022-09-27T08:11:09;10.83;;;2.83;;
12232;SDS011;6179;51.748;8.728;2022-09-27T08:17:14;7.30;;;3.17;;
12232;SDS011;6179;51.748;8.728;2022-09-27T08:23:16;9.30;;;6.07;;
12232;SDS011;6179;51.748;8.728;2022-09-27T08:29:17;12.93;;;6.57;;
12232;SDS011;6179;51.748;8.728;2022-09-27T08:35:22;9.20;;;6.80;;
12232;SDS011;6179;51.748;8.728;2022-09-27T08:48:01;14.30;;;7.30;;
12232;SDS011;6179;51.748;8.728;2022-09-27T08:54:09;10.57;;;6.90;;
12232;SDS011;6179;51.748;8.728;2022-09-27T09:00:18;8.27;;;4.23;;
12232;SDS011;6179;51.748;8.728;2022-09-27T09:12:37;13.80;;;4.00;;
12232;SDS011;6179;51.748;8.728;2022-09-27T09:25:11;6.83;;;2.30;;
12232;SDS011;6179;51.748;8.728;2022-09-27T09:49:50;6.43;;;4.93;;
12232;SDS011;6179;51.748;8.728;2022-09-27T10:08:39;4.00;;;3.60;;
12232;SDS011;6179;51.748;8.728;2022-09-27T10:14:44;3.77;;;3.03;;
12232;SDS011;6179;51.748;8.728;2022-09-27T10:20:51;18.07;;;4.90;;
12232;SDS011;6179;51.748;8.728;2022-09-27T10:26:56;6.13;;;3.50;;
12232;SDS011;6179;51.748;8.728;2022-09-27T10:33:04;6.63;;;3.67;;
12232;SDS011;6179;51.748;8.728;2022-09-27T10:39:21;4.30;;;4.00;;
12232;SDS011;6179;51.748;8.728;2022-09-27T10:51:33;8.53;;;3.97;;
12232;SDS011;6179;51.748;8.728;2022-09-27T10:57:38;3.03;;;2.80;;
12232;SDS011;6179;51.748;8.728;2022-09-27T11:03:51;3.30;;;3.00;;
12232;SDS011;6179;51.748;8.728;2022-09-27T11:09:58;2.53;;;2.33;;
12232;SDS011;6179;51.748;8.728;2022-09-27T11:28:54;4.33;;;3.57;;
12232;SDS011;6179;51.748;8.728;2022-09-27T12:00:36;3.13;;;1.97;;
12232;SDS011;6179;51.748;8.728;2022-09-27T12:13:51;1.00;;;1.00;;
12232;SDS011;6179;51.748;8.728;2022-09-27T12:20:41;0.87;;;0.80;;
12232;SDS011;6179;51.748;8.728;2022-09-27T12:26:35;0.70;;;0.67;;
12232;SDS011;6179;51.748;8.728;2022-09-27T12:52:42;1.67;;;0.70;;
12232;SDS011;6179;51.748;8.728;2022-09-27T13:05:26;5.33;;;0.87;;
12232;SDS011;6179;51.748;8.728;2022-09-27T13:12:14;3.03;;;1.00;;
12232;SDS011;6179;51.748;8.728;2022-09-27T13:36:41;1.07;;;1.07;;
12232;SDS011;6179;51.748;8.728;2022-09-27T13:42:45;1.60;;;0.80;;
12232;SDS011;6179;51.748;8.728;2022-09-27T13:48:56;5.63;;;1.00;;
12232;SDS011;6179;51.748;8.728;2022-09-27T13:55:04;1.77;;;1.00;;
12232;SDS011;6179;51.748;8.728;2022-09-27T14:14:42;4.43;;;0.93;;
12232;SDS011;6179;51.748;8.728;2022-09-27T14:20:49;6.63;;;1.03;;
12232;SDS011;6179;51.748;8.728;2022-09-27T14:27:11;1.37;;;1.00;;
12232;SDS011;6179;51.748;8.728;2022-09-27T14:33:26;0.70;;;0.70;;
12232;SDS011;6179;51.748;8.728;2022-09-27T14:39:33;2.73;;;0.90;;
12232;SDS011;6179;51.748;8.728;2022-09-27T14:45:37;1.43;;;1.00;;
12232;SDS011;6179;51.748;8.728;2022-09-27T14:51:39;0.90;;;0.70;;
12232;SDS011;6179;51.748;8.728;2022-09-27T14:57:43;1.43;;;1.00;;
12232;SDS011;6179;51.748;8.728;2022-09-27T15:03:52;1.57;;;1.17;;
12232;SDS011;6179;51.748;8.728;2022-09-27T15:09:52;2.77;;;1.30;;
12232;SDS011;6179;51.748;8.728;2022-09-27T15:15:53;1.47;;;1.37;;
12232;SDS011;6179;51.748;8.728;2022-09-27T15:21:55;5.10;;;2.27;;
12232;SDS011;6179;51.748;8.728;2022-09-27T15:28:16;2.03;;;1.70;;
12232;SDS011;6179;51.748;8.728;2022-09-27T15:34:18;3.63;;;2.00;;
12232;SDS011;6179;51.748;8.728;2022-09-27T15:46:40;9.40;;;2.60;;
12232;SDS011;6179;51.748;8.728;2022-09-27T15:52:45;3.40;;;1.50;;
12232;SDS011;6179;51.748;8.728;2022-09-27T15:58:50;1.30;;;1.20;;
12232;SDS011;6179;51.748;8.728;2022-09-27T16:04:51;1.97;;;1.73;;
12232;SDS011;6179;51.748;8.728;2022-09-27T16:10:52;6.63;;;1.07;;
12232;SDS011;6179;51.748;8.728;2022-09-27T16:16:55;1.20;;;1.10;;
12232;SDS011;6179;51.748;8.728;2022-09-27T16:23:00;6.63;;;1.90;;
12232;SDS011;6179;51.748;8.728;2022-09-27T16:29:01;3.30;;;0.80;;
12232;SDS011;6179;51.748;8.728;2022-09-27T16:35:01;3.73;;;2.33;;
12232;SDS011;6179;51.748;8.728;2022-09-27T16:41:02;1.70;;;1.60;;
12232;SDS011;6179;51.748;8.728;2022-09-27T16:47:04;5.90;;;3.47;;
12232;SDS011;6179;51.748;8.728;2022-09-27T16:53:06;14.13;;;2.80;;
12232;SDS011;6179;51.748;8.728;2022-09-27T16:59:07;1.80;;;1.50;;
12232;SDS011;6179;51.748;8.728;2022-09-27T17:05:08;4.17;;;2.47;;
12232;SDS011;6179;51.748;8.728;2022-09-27T17:11:13;8.70;;;2.30;;
12232;SDS011;6179;51.748;8.728;2022-09-27T17:17:15;2.03;;;0.83;;
12232;SDS011;6179;51.748;8.728;2022-09-27T17:23:15;2.53;;;1.23;;
12232;SDS011;6179;51.748;8.728;2022-09-27T17:29:16;3.70;;;1.53;;
12232;SDS011;6179;51.748;8.728;2022-09-27T17:35:17;4.50;;;1.97;;
12232;SDS011;6179;51.748;8.728;2022-09-27T17:41:19;2.33;;;2.13;;
12232;SDS011;6179;51.748;8.728;2022-09-27T17:47:23;8.20;;;2.60;;
12232;SDS011;6179;51.748;8.728;2022-09-27T17:53:42;7.13;;;3.07;;
12232;SDS011;6179;51.748;8.728;2022-09-27T17:59:43;3.83;;;3.00;;
12232;SDS011;6179;51.748;8.728;2022-09-27T18:05:44;7.73;;;2.70;;
12232;SDS011;6179;51.748;8.728;2022-09-27T18:11:44;6.23;;;2.97;;
12232;SDS011;6179;51.748;8.728;2022-09-27T18:17:48;10.57;;;2.30;;
12232;SDS011;6179;51.748;8.728;2022-09-27T18:23:55;4.73;;;3.57;;
12232;SDS011;6179;51.748;8.728;2022-09-27T18:29:57;4.37;;;2.50;;
12232;SDS011;6179;51.748;8.728;2022-09-27T18:42:13;3.00;;;1.83;;
12232;SDS011;6179;51.748;8.728;2022-09-27T18:48:19;7.10;;;2.13;;
12232;SDS011;6179;51.748;8.728;2022-09-27T18:54:20;4.87;;;1.97;;
12232;SDS011;6179;51.748;8.728;2022-09-27T19:00:21;2.63;;;2.00;;
12232;SDS011;6179;51.748;8.728;2022-09-27T19:06:22;3.37;;;3.13;;
12232;SDS011;6179;51.748;8.728;2022-09-27T19:12:23;14.83;;;3.10;;
12232;SDS011;6179;51.748;8.728;2022-09-27T19:18:24;2.20;;;2.00;;
12232;SDS011;6179;51.748;8.728;2022-09-27T19:24:25;5.93;;;2.30;;
12232;SDS011;6179;51.748;8.728;2022-09-27T19:30:26;4.57;;;2.73;;
12232;SDS011;6179;51.748;8.728;2022-09-27T19:36:27;2.60;;;1.40;;
12232;SDS011;6179;51.748;8.728;2022-09-27T19:42:30;1.77;;;1.37;;
12232;SDS011;6179;51.748;8.728;2022-09-27T19:48:31;4.67;;;2.97;;
12232;SDS011;6179;51.748;8.728;2022-09-27T19:54:32;3.47;;;1.67;;
12232;SDS011;6179;51.748;8.728;2022-09-27T20:00:32;1.13;;;1.03;;
12232;SDS011;6179;51.748;8.728;2022-09-27T20:06:33;12.80;;;2.60;;
12232;SDS011;6179;51.748;8.728;2022-09-27T20:12:34;2.20;;;1.13;;
12232;SDS011;6179;51.748;8.728;2022-09-27T20:18:38;2.40;;;1.30;;
12232;SDS011;6179;51.748;8.728;2022-09-27T20:24:43;1.17;;;1.07;;
12232;SDS011;6179;51.748;8.728;2022-09-27T20:30:53;2.30;;;1.10;;
12232;SDS011;6179;51.748;8.728;2022-09-27T20:36:57;13.10;;;0.90;;
12232;SDS011;6179;51.748;8.728;2022-09-27T20:42:57;0.73;;;0.73;;
12232;SDS011;6179;51.748;8.728;2022-09-27T20:48:59;1.23;;;1.03;;
12232;SDS011;6179;51.748;8.728;2022-09-27T20:55:02;2.10;;;1.30;;
12232;SDS011;6179;51.748;8.728;2022-09-27T21:01:03;5.83;;;1.73;;
12232;SDS011;6179;51.748;8.728;2022-09-27T21:07:05;1.20;;;1.20;;
12232;SDS011;6179;51.748;8.728;2022-09-27T21:13:06;0.70;;;0.70;;
12232;SDS011;6179;51.748;8.728;2022-09-27T21:19:08;7.20;;;1.03;;
12232;SDS011;6179;51.748;8.728;2022-09-27T21:25:12;1.20;;;1.10;;
12232;SDS011;6179;51.748;8.728;2022-09-27T21:31:14;2.33;;;1.03;;
12232;SDS011;6179;51.748;8.728;2022-09-27T21:37:15;2.10;;;1.33;;
12232;SDS011;6179;51.748;8.728;2022-09-27T21:43:16;1.43;;;1.27;;
12232;SDS011;6179;51.748;8.728;2022-09-27T21:49:17;1.10;;;0.70;;
12232;SDS011;6179;51.748;8.728;2022-09-27T21:55:17;0.70;;;0.70;;
12232;SDS011;6179;51.748;8.728;2022-09-27T22:01:19;1.57;;;0.70;;
12232;SDS011;6179;51.748;8.728;2022-09-27T22:07:21;5.73;;;0.93;;
12232;SDS011;6179;51.748;8.728;2022-09-27T22:13:22;1.23;;;0.87;;
12232;SDS011;6179;51.748;8.728;2022-09-27T22:19:23;1.63;;;1.07;;
12232;SDS011;6179;51.748;8.728;2022-09-27T22:25:24;2.70;;;1.30;;
12232;SDS011;6179;51.748;8.728;2022-09-27T22:31:25;1.60;;;1.20;;
12232;SDS011;6179;51.748;8.728;2022-09-27T22:37:26;4.90;;;2.40;;
12232;SDS011;6179;51.748;8.728;2022-09-27T22:43:27;3.03;;;1.27;;
12232;SDS011;6179;51.748;8.728;2022-09-27T22:49:28;1.13;;;1.03;;
12232;SDS011;6179;51.748;8.728;2022-09-27T22:55:28;2.40;;;1.30;;
12232;SDS011;6179;51.748;8.728;2022-09-27T23:01:29;7.13;;;1.40;;
12232;SDS011;6179;51.748;8.728;2022-09-27T23:07:30;5.20;;;1.90;;
12232;SDS011;6179;51.748;8.728;2022-09-27T23:13:31;1.50;;;1.10;;
12232;SDS011;6179;51.748;8.728;2022-09-27T23:19:34;3.43;;;1.20;;
12232;SDS011;6179;51.748;8.728;2022-09-27T23:25:35;1.47;;;1.10;;
12232;SDS011;6179;51.748;8.728;2022-09-27T23:31:35;1.30;;;1.00;;
12232;SDS011;6179;51.748;8.728;2022-09-27T23:37:36;1.37;;;1.27;;
12232;SDS011;6179;51.748;8.728;2022-09-27T23:43:37;2.60;;;1.50;;
12232;SDS011;6179;51.748;8.728;2022-09-27T23:49:38;3.60;;;1.90;;
12232;SDS011;6179;51.748;8.728;2022-09-27T23:55:38;6.50;;;1.47;;
